Station: Parndana

  Atmospheric Gas Attenuation - ITU Rec 676-11   --------------- db/100km ---------------
Date Time Temp RH % AH g/m3 Dew Point Wind Direction Speed kph Gust kph Barometer mB Rainfall Since 9am 24GHz 47GHz 76GHz 122GHz 134GHz 241GHz
14 23:50 10 95 8.93 9.2 15 17 1013.1 0.8 20.5 27.6 43.2 113.4 108.0 371.5
14 23:40 9.9 95 8.87 9.1 17 17 1013.1 0.8 20.4 27.5 43.0 112.8 107.3 369.0
14 23:30 9.8 95 8.82 9 17 22 1013.1 0.8 20.3 27.5 42.8 112.4 106.7 367.0
14 23:20 9.9 96 8.97 9.3 13 13 1013.1 0.8 20.6 27.7 43.4 114.0 108.7 374.0
14 23:10 10 96 9.02 9.4 15 17 1013.1 0.8 20.7 27.7 43.5 114.4 109.3 376.0
14 23:00 9.9 96 8.97 9.3 15 19 1013.1 0.8 20.6 27.7 43.4 114.0 108.7 374.0
14 22:50 10 96 9.02 9.4 17 20 1013.1 0.8 20.7 27.7 43.5 114.4 109.3 376.0
14 22:40 10 96 9.02 9.4 19 20 1013.1 0.8 20.7 27.7 43.5 114.4 109.3 376.0
14 22:30 10 96 9.02 9.4 19 22 1013.1 0.8 20.7 27.7 43.5 114.4 109.3 376.0
14 22:20 10.1 96 9.08 9.5 17 22 1013.1 0.8 20.8 27.8 43.7 115.0 110.0 378.4
14 22:10 10.1 96 9.08 9.5 19 22 1013.1 0.8 20.8 27.8 43.7 115.0 110.0 378.4
14 22:00 10 96 9.02 9.4 22 24 1013.1 0.8 20.7 27.7 43.5 114.4 109.3 376.0
14 21:50 10.1 95 8.99 9.3 19 24 1013.1 0.8 20.6 27.7 43.4 113.9 108.7 374.0
14 21:40 10.1 95 8.99 9.3 22 24 1013.1 0.8 20.6 27.7 43.4 113.9 108.7 374.0
14 21:30 10.2 93 8.85 9.2 26 28 1013.1 0.8 20.3 27.4 42.7 112.2 106.6 366.6
14 21:20 10.2 93 8.85 9.2 20 22 1013.1 0.8 20.3 27.4 42.7 112.2 106.6 366.6
14 21:10 10.2 93 8.85 9.2 28 32 1013.1 0.8 20.3 27.4 42.7 112.2 106.6 366.6
14 21:00 10.2 95 9.04 9.4 24 30 1013.1 0.8 20.7 27.7 43.5 114.4 109.3 376.0
14 20:50 10.3 96 9.2 9.7 20 24 1013.1 0.8 21.1 28.0 44.2 116.0 111.4 383.4
14 20:40 10.2 96 9.14 9.6 22 28 1013.1 0.8 20.9 27.9 44.0 115.5 110.7 380.9
14 20:30 10.3 97 9.29 9.8 22 26 1013.1 0.8 21.3 28.1 44.5 117.1 112.6 387.9
14 20:20 10.3 97 9.29 9.8 22 28 1013.1 0.8 21.3 28.1 44.5 117.1 112.6 387.9
14 20:10 10.3 97 9.29 9.8 22 26 1013.1 0.8 21.3 28.1 44.5 117.1 112.6 387.9
14 20:00 10.3 97 9.29 9.8 22 24 1013.1 0.8 21.3 28.1 44.5 117.1 112.6 387.9
14 19:50 10.3 97 9.29 9.8 22 26 1013.1 0.6 21.3 28.1 44.5 117.1 112.6 387.9
14 19:40 10.3 97 9.29 9.8 20 26 1013.1 0.6 21.3 28.1 44.5 117.1 112.6 387.9
14 19:30 10.4 97 9.35 9.9 20 26 1013.1 0.6 21.4 28.2 44.7 117.6 113.4 390.3
14 19:20 10.4 97 9.35 9.9 20 22 1013.1 0.6 21.4 28.2 44.7 117.6 113.4 390.3
14 19:10 10.4 97 9.35 9.9 22 24 1013.1 0.6 21.4 28.2 44.7 117.6 113.4 390.3
14 19:00 10.4 97 9.35 9.9 24 28 1013.1 0.6 21.4 28.2 44.7 117.6 113.4 390.3
14 18:50 10.4 97 9.35 9.9 26 30 1013.1 0.6 21.4 28.2 44.7 117.6 113.4 390.3
14 18:40 10.4 97 9.35 9.9 28 32 1013.1 0.6 21.4 28.2 44.7 117.6 113.4 390.3
14 18:30 10.5 97 9.41 10 20 26 1013.1 0.6 21.5 28.3 44.9 118.2 114.1 392.8
14 18:20 10.5 96 9.31 9.9 20 24 1013.1 0.6 21.3 28.1 44.5 117.0 112.6 387.8
14 18:10 10.6 95 9.27 9.9 17 20 1013.1 0.6 21.2 28.0 44.3 116.4 111.9 385.4
14 18:00 10.7 95 9.33 10 19 20 1013.1 0.6 21.3 28.1 44.5 116.9 112.6 387.8
14 17:50 10.7 95 9.33 10 22 26 1013.1 0.6 21.3 28.1 44.5 116.9 112.6 387.8
14 17:40 10.8 95 9.39 10.1 24 30 1013.1 0.6 21.4 28.1 44.7 117.5 113.3 390.3
14 17:30 10.9 95 9.45 10.2 20 22 1013.1 0.6 21.6 28.2 44.9 118.0 114.0 392.8
14 17:20 11.1 95 9.57 10.4 19 20 1013.1 0.6 21.8 28.3 45.3 119.1 115.4 397.7
14 17:10 11.1 95 9.57 10.4 22 26 1013.1 0.6 21.8 28.3 45.3 119.1 115.4 397.7
14 17:00 11.3 95 9.69 10.6 19 20 1013.1 0.6 22.1 28.5 45.7 120.2 116.8 402.6
14 16:50 11.3 95 9.69 10.6 24 28 1013.1 0.6 22.1 28.5 45.7 120.2 116.8 402.6
14 16:40 11.5 95 9.81 10.8 24 32 1013.1 0.6 22.3 28.6 46.1 121.2 118.2 407.5
14 16:30 11.5 95 9.81 10.8 24 28 1013.1 0.6 22.3 28.6 46.1 121.2 118.2 407.5
14 16:20 11.7 95 9.94 11 24 28 1013.1 0.6 22.6 28.8 46.5 122.4 119.8 413.0
14 16:10 11.8 95 10 11.1 28 32 1013.1 0.6 22.7 28.9 46.7 123.0 120.5 415.4
14 16:00 12.2 95 10.25 11.5 20 22 1013.1 0.6 23.2 29.2 47.6 125.2 123.4 425.7
14 15:50 12.1 95 10.19 11.3 22 26 1013.1 0.6 23.1 29.1 47.4 124.7 122.7 423.3
14 15:40 12.4 95 10.38 11.6 22 24 1013.1 0.6 23.5 29.3 48.0 126.4 124.9 431.1
14 15:30 12.4 94 10.27 11.4 24 30 1013.1 0.6 23.3 29.1 47.6 125.1 123.4 425.6
14 15:20 12.6 94 10.4 11.6 24 26 1013.1 0.6 23.5 29.3 48.0 126.3 124.9 431.0
14 15:10 13 95 10.77 12.2 20 26 1013.1 0.6 24.3 29.8 49.4 130.0 129.5 447.3
14 15:00 13.2 94 10.79 12.2 22 24 1013.1 0.6 24.3 29.8 49.3 129.9 129.5 447.1
14 14:50 13.4 94 10.93 12.4 24 26 1013.1 0.6 24.6 30.0 49.8 131.2 131.2 453.0
14 14:40 13.8 95 11.32 13 22 24 1013.1 0.6 25.4 30.5 51.3 135.1 136.1 470.3
14 14:30 13.8 95 11.32 13 22 24 1013.1 0.6 25.4 30.5 51.3 135.1 136.1 470.3
14 14:20 13.6 97 11.42 13.1 20 22 1013.1 0.6 25.7 30.8 51.9 136.6 137.9 476.6
14 14:10 13.3 97 11.21 12.8 20 20 1013.1 0.6 25.2 30.5 51.1 134.6 135.4 467.8
14 14:00 13.2 97 11.14 12.7 20 22 1013.1 0.6 25.1 30.4 50.9 134.0 134.6 464.8
14 13:50 13.5 97 11.35 13 19 20 1013.1 0.6 25.5 30.7 51.6 135.9 137.1 473.7
14 13:40 13.6 97 11.42 13.1 15 19 1013.1 0.6 25.7 30.8 51.9 136.6 137.9 476.6
14 13:30 13.3 98 11.32 13 17 19 1013.1 0.6 25.5 30.7 51.6 135.9 137.0 473.4
14 13:20 13.2 98 11.25 12.9 15 17 1013.1 0.6 25.3 30.6 51.4 135.3 136.2 470.4
14 13:10 13.4 98 11.39 13.1 15 15 1013.1 0.6 25.6 30.8 51.9 136.6 137.9 476.3
14 13:00 13.6 98 11.53 13.3 11 17 1013.1 0.6 25.9 31.0 52.3 137.9 139.5 482.2
14 12:50 13.3 98 11.32 13 6 7 1013.1 0.6 25.5 30.7 51.6 135.9 137.0 473.4
14 12:40 13.3 98 11.32 13 15 15 1013.1 0.6 25.5 30.7 51.6 135.9 137.0 473.4
14 12:30 13.3 98 11.32 13 13 13 1013.1 0.6 25.5 30.7 51.6 135.9 137.0 473.4
14 12:20 13.7 98 11.61 13.4 9 11 1013.1 0.6 26.1 31.1 52.6 138.7 140.5 485.7
14 12:10 13.5 98 11.46 13.2 11 13 1013.1 0.6 25.8 30.9 52.1 137.3 138.7 479.3
14 12:00 13.4 98 11.39 13.1 13 15 1013.1 0.6 25.6 30.8 51.9 136.6 137.9 476.3
14 11:50 13.3 98 11.32 13 11 13 1013.1 0.6 25.5 30.7 51.6 135.9 137.0 473.4
14 11:40 13.1 98 11.18 12.8 9 9 1013.1 0.6 25.2 30.5 51.1 134.6 135.3 467.5
14 11:30 13 98 11.11 12.7 9 11 1013.1 0.6 25.0 30.4 50.9 134.0 134.5 464.5
14 11:20 13.1 98 11.18 12.8 9 9 1013.1 0.6 25.2 30.5 51.1 134.6 135.3 467.5
14 11:10 12.8 98 10.98 12.5 13 13 1013.1 0.6 24.8 30.3 50.4 132.8 132.9 459.1
14 11:00 12.7 98 10.91 12.4 11 11 1013.1 0.6 24.6 30.2 50.2 132.1 132.1 456.1
14 10:50 12.7 98 10.91 12.4 13 15 1013.1 0.6 24.6 30.2 50.2 132.1 132.1 456.1
14 10:40 12.7 98 10.91 12.4 15 15 1013.1 0.6 24.6 30.2 50.2 132.1 132.1 456.1
14 10:30 12.5 98 10.78 12.2 9 11 1013.1 0.6 24.3 30.0 49.7 130.9 130.6 450.7
14 10:20 12.4 98 10.71 12.1 11 11 1013.1 0.6 24.2 29.9 49.5 130.3 129.7 447.8
14 10:10 12.5 98 10.78 12.2 13 15 1013.1 0.6 24.3 30.0 49.7 130.9 130.6 450.7
14 10:00 12.5 98 10.78 12.2 7 7 1013.1 0.2 24.3 30.0 49.7 130.9 130.6 450.7
14 09:50 12.6 98 10.84 12.3 11 13 1013.1 0.2 24.5 30.1 49.9 131.5 131.3 453.2
14 09:40 12.6 98 10.84 12.3 11 13 1013.1 0.2 24.5 30.1 49.9 131.5 131.3 453.2
14 09:30 12.6 98 10.84 12.3 11 13 1013.1 0.2 24.5 30.1 49.9 131.5 131.3 453.2
14 09:20 12.7 98 10.91 12.4 9 11 1013.1 0.2 24.6 30.2 50.2 132.1 132.1 456.1
14 09:10 12.9 98 11.05 12.6 11 13 1013.1 0.2 24.9 30.3 50.7 133.4 133.8 462.1
14 09:00 13 98 11.11 12.7 9 11 1013.1 0 25.0 30.4 50.9 134.0 134.5 464.5
14 08:50 13.1 98 11.18 12.8 6 6 1013.1 17.6 25.2 30.5 51.1 134.6 135.3 467.5
14 08:40 13.2 98 11.25 12.9 6 6 1013.1 16.2 25.3 30.6 51.4 135.3 136.2 470.4
14 08:30 13.2 98 11.25 12.9 0 0 1013.1 16 25.3 30.6 51.4 135.3 136.2 470.4
14 08:20 13 98 11.11 12.7 0 0 1013.1 15.8 25.0 30.4 50.9 134.0 134.5 464.5
14 08:10 12.9 98 11.05 12.6 0 0 1013.1 15.8 24.9 30.3 50.7 133.4 133.8 462.1
14 08:00 12.8 98 10.98 12.5 4 4 1013.1 15.6 24.8 30.3 50.4 132.8 132.9 459.1
14 07:50 12.8 98 10.98 12.5 4 4 1013.1 15.6 24.8 30.3 50.4 132.8 132.9 459.1
14 07:40 12.7 98 10.91 12.4 4 4 1013.1 15.4 24.6 30.2 50.2 132.1 132.1 456.1
14 07:30 12.7 98 10.91 12.4 6 6 1013.1 15.4 24.6 30.2 50.2 132.1 132.1 456.1
14 07:20 12.7 98 10.91 12.4 4 4 1013.1 15.4 24.6 30.2 50.2 132.1 132.1 456.1

Last Refresh: 15-Jun-2024 00:05:59

Bureau of Meteorology